createdAt,value
2019-06-08T00:01:04.000Z,0
2019-06-08T00:02:17.000Z,0
2019-06-08T00:03:28.000Z,0
2019-06-08T00:04:40.000Z,0
2019-06-08T00:05:53.000Z,0
2019-06-08T00:07:06.000Z,0
2019-06-08T00:08:18.000Z,0
2019-06-08T00:09:30.000Z,0
2019-06-08T00:10:42.000Z,0
2019-06-08T00:11:54.000Z,0
2019-06-08T00:13:07.112Z,0
2019-06-08T00:14:19.000Z,0
2019-06-08T00:16:42.000Z,0
2019-06-08T00:17:55.000Z,0
2019-06-08T00:19:08.063Z,0
2019-06-08T00:20:20.000Z,0
2019-06-08T00:21:32.000Z,0
2019-06-08T00:22:44.000Z,0
2019-06-08T00:23:55.000Z,0
2019-06-08T00:25:08.000Z,0
2019-06-08T00:26:21.211Z,0
2019-06-08T00:27:32.000Z,0
2019-06-08T00:28:44.000Z,0
2019-06-08T00:29:57.791Z,0
2019-06-08T00:31:08.000Z,0
2019-06-08T00:32:21.000Z,0
2019-06-08T00:33:34.000Z,0
2019-06-08T00:34:46.566Z,0
2019-06-08T00:35:58.000Z,0
2019-06-08T00:37:10.000Z,0
2019-06-08T00:38:22.000Z,0
2019-06-08T00:39:35.000Z,0
2019-06-08T00:40:46.000Z,0
2019-06-08T00:41:59.709Z,0
2019-06-08T00:43:10.000Z,0
2019-06-08T00:44:23.000Z,0
2019-06-08T00:45:36.000Z,0
2019-06-08T00:46:48.000Z,0
2019-06-08T00:47:59.000Z,0
2019-06-08T00:49:12.841Z,0
2019-06-08T00:50:24.000Z,0
2019-06-08T00:51:36.000Z,0
2019-06-08T00:52:49.000Z,0
2019-06-08T00:54:01.000Z,0
2019-06-08T00:55:12.000Z,0
2019-06-08T00:57:38.212Z,0
2019-06-08T00:58:50.408Z,0
2019-06-08T01:00:02.630Z,0
2019-06-08T01:01:14.000Z,0
2019-06-08T01:02:26.000Z,0
2019-06-08T01:03:39.197Z,0
2019-06-08T01:04:51.383Z,0
2019-06-08T01:06:03.583Z,0
2019-06-08T01:07:15.771Z,0
2019-06-08T01:08:27.959Z,0
2019-06-08T01:16:53.342Z,0
2019-06-08T01:20:29.926Z,0
2019-06-08T01:21:42.001Z,0
2019-06-08T01:26:30.876Z,0
2019-06-08T01:27:43.074Z,0
2019-06-08T01:28:55.271Z,0
2019-06-08T01:30:07.459Z,0
2019-06-08T01:32:31.836Z,0
2019-06-08T01:33:44.022Z,0
2019-06-08T01:36:08.398Z,0
2019-06-08T01:37:20.585Z,0
2019-06-08T01:38:32.078Z,0
2019-06-08T01:40:56.000Z,0
2019-06-08T01:42:09.381Z,0
2019-06-08T01:43:20.000Z,0
2019-06-08T01:44:33.000Z,0
2019-06-08T01:45:45.937Z,0
2019-06-08T01:46:57.000Z,0
2019-06-08T01:48:10.033Z,0
2019-06-08T01:49:22.000Z,0
2019-06-08T01:50:34.000Z,0
2019-06-08T01:51:45.000Z,0
2019-06-08T01:52:58.000Z,0
2019-06-08T01:54:10.000Z,0
2019-06-08T01:55:22.000Z,0
2019-06-08T01:56:35.000Z,0
2019-06-08T01:57:46.000Z,0
2019-06-08T02:00:11.000Z,0
2019-06-08T02:01:23.000Z,0
2019-06-08T02:02:35.000Z,0
2019-06-08T02:03:48.874Z,0
2019-06-08T02:05:00.000Z,0
2019-06-08T02:06:13.266Z,0
2019-06-08T02:07:24.000Z,0
2019-06-08T02:08:36.000Z,0
2019-06-08T02:09:48.000Z,0
2019-06-08T02:11:01.000Z,0
2019-06-08T02:13:26.000Z,4
2019-06-08T02:14:37.000Z,0
2019-06-08T02:15:49.000Z,0
2019-06-08T02:17:02.975Z,0
2019-06-08T02:18:14.000Z,0
2019-06-08T02:19:27.000Z,0
2019-06-08T02:20:39.000Z,4
2019-06-08T02:21:50.000Z,4
2019-06-08T02:23:03.000Z,4
2019-06-08T02:24:15.000Z,4
2019-06-08T02:25:28.320Z,8
2019-06-08T02:26:40.504Z,8
2019-06-08T02:27:52.000Z,8
2019-06-08T02:30:18.000Z,8
2019-06-08T02:31:28.000Z,8
2019-06-08T02:32:41.452Z,12
2019-06-08T02:33:53.642Z,12
2019-06-08T02:35:05.000Z,12
2019-06-08T02:36:16.000Z,12
2019-06-08T02:37:29.000Z,12
2019-06-08T02:38:42.000Z,16
2019-06-08T02:39:53.000Z,24
2019-06-08T02:41:06.802Z,24
2019-06-08T02:42:17.000Z,28
2019-06-08T02:43:30.000Z,32
2019-06-08T02:44:42.000Z,36
2019-06-08T02:45:55.059Z,36
2019-06-08T02:47:11.000Z,44
2019-06-08T02:48:19.981Z,56
2019-06-08T02:49:31.000Z,56
2019-06-08T02:50:43.000Z,52
2019-06-08T02:51:55.000Z,52
2019-06-08T02:53:08.745Z,56
2019-06-08T02:54:20.936Z,52
2019-06-08T02:55:32.000Z,60
2019-06-08T02:56:45.032Z,80
2019-06-08T02:57:56.000Z,92
2019-06-08T02:59:08.000Z,112
2019-06-08T03:00:20.000Z,124
2019-06-08T03:01:34.091Z,136
2019-06-08T03:02:46.279Z,120
2019-06-08T03:03:58.469Z,104
2019-06-08T03:05:09.000Z,100
2019-06-08T03:06:22.000Z,108
2019-06-08T03:07:34.000Z,116
2019-06-08T03:08:47.000Z,116
2019-06-08T03:09:58.000Z,124
2019-06-08T03:11:11.000Z,128
2019-06-08T03:12:23.818Z,144
2019-06-08T03:13:34.000Z,160
2019-06-08T03:14:48.000Z,168
2019-06-08T03:16:00.000Z,176
2019-06-08T03:17:11.000Z,176
2019-06-08T03:18:24.000Z,184
2019-06-08T03:19:36.957Z,220
2019-06-08T03:20:49.138Z,256
2019-06-08T03:22:00.000Z,268
2019-06-08T03:23:12.000Z,268
2019-06-08T03:24:24.000Z,256
2019-06-08T03:25:37.902Z,252
2019-06-08T03:26:49.000Z,256
2019-06-08T03:28:01.000Z,252
2019-06-08T03:29:14.000Z,228
2019-06-08T03:30:26.000Z,212
2019-06-08T03:31:37.000Z,220
2019-06-08T03:32:50.000Z,220
2019-06-08T03:34:03.000Z,204
2019-06-08T03:35:15.000Z,192
2019-06-08T03:36:26.000Z,176
2019-06-08T03:37:39.000Z,184
2019-06-08T03:38:51.000Z,176
2019-06-08T03:40:04.000Z,156
2019-06-08T03:41:15.000Z,148
2019-06-08T03:42:27.000Z,144
2019-06-08T03:43:40.787Z,144
2019-06-08T03:44:51.000Z,140
2019-06-08T03:46:05.176Z,140
2019-06-08T03:48:28.000Z,152
2019-06-08T03:49:41.755Z,176
2019-06-08T03:50:52.000Z,220
2019-06-08T03:52:06.000Z,276
2019-06-08T03:53:18.000Z,328
2019-06-08T03:54:30.000Z,344
2019-06-08T03:55:41.000Z,416
2019-06-08T03:56:53.000Z,512
2019-06-08T03:58:06.000Z,512
2019-06-08T03:59:18.000Z,552
2019-06-08T04:00:31.500Z,664
2019-06-08T04:01:42.000Z,752
2019-06-08T04:02:55.897Z,824
2019-06-08T04:04:07.000Z,880
2019-06-08T04:05:19.000Z,888
2019-06-08T04:06:31.000Z,952
2019-06-08T04:07:44.668Z,1072
2019-06-08T04:08:56.858Z,1112
2019-06-08T04:10:09.046Z,1188
2019-06-08T04:11:20.000Z,1276
2019-06-08T04:12:33.000Z,1260
2019-06-08T04:13:45.000Z,1132
2019-06-08T04:14:56.000Z,1012
2019-06-08T04:16:09.000Z,956
2019-06-08T04:17:22.174Z,912
2019-06-08T04:18:33.000Z,880
2019-06-08T04:19:46.000Z,900
2019-06-08T04:20:58.000Z,1088
2019-06-08T04:22:09.000Z,1140
2019-06-08T04:23:23.110Z,1120
2019-06-08T04:24:35.000Z,1164
2019-06-08T04:25:47.000Z,1292
2019-06-08T04:26:58.000Z,1620
2019-06-08T04:28:11.000Z,1920
2019-06-08T04:29:24.068Z,2020
2019-06-08T04:30:35.000Z,2044
2019-06-08T04:31:47.000Z,2072
2019-06-08T04:33:00.633Z,2164
2019-06-08T04:34:11.000Z,2344
2019-06-08T04:35:25.019Z,2592
2019-06-08T04:36:36.000Z,2728
2019-06-08T04:37:49.000Z,2816
2019-06-08T04:39:00.000Z,2896
2019-06-08T04:40:13.000Z,2904
2019-06-08T04:41:25.946Z,2772
2019-06-08T04:42:37.000Z,2556
2019-06-08T04:43:49.000Z,2568
2019-06-08T04:45:02.000Z,2680
2019-06-08T04:46:13.000Z,2720
2019-06-08T04:47:25.000Z,2744
2019-06-08T04:48:38.000Z,2724
2019-06-08T04:49:51.256Z,2844
2019-06-08T04:51:02.000Z,3088
2019-06-08T04:52:15.000Z,3140
2019-06-08T04:53:27.000Z,3132
2019-06-08T04:54:38.000Z,3172
2019-06-08T04:55:52.178Z,2928
2019-06-08T04:58:15.000Z,2896
2019-06-08T04:59:28.732Z,2968
2019-06-08T05:00:39.000Z,3220
2019-06-08T05:01:52.000Z,3252
2019-06-08T05:03:05.304Z,3000
2019-06-08T05:04:16.000Z,2944
2019-06-08T05:05:29.000Z,3024
2019-06-08T05:06:40.000Z,3080
2019-06-08T05:07:53.000Z,3060
2019-06-08T05:09:05.000Z,2864
2019-06-08T05:10:17.000Z,2936
2019-06-08T05:11:29.000Z,2884
2019-06-08T05:12:42.833Z,2972
2019-06-08T05:13:55.011Z,3148
2019-06-08T05:15:06.000Z,3212
2019-06-08T05:16:19.389Z,3648
2019-06-08T05:17:30.000Z,3580
2019-06-08T05:18:42.000Z,3364
2019-06-08T05:19:54.000Z,2980
2019-06-08T05:21:07.000Z,2728
2019-06-08T05:22:20.000Z,2604
2019-06-08T05:23:32.553Z,2576
2019-06-08T05:24:44.752Z,2580
2019-06-08T05:25:56.000Z,2620
2019-06-08T05:27:08.000Z,2836
2019-06-08T05:28:20.000Z,3048
2019-06-08T05:29:32.000Z,3032
2019-06-08T05:30:45.000Z,2816
2019-06-08T05:31:57.000Z,3076
2019-06-08T05:33:10.088Z,3120
2019-06-08T05:34:21.000Z,3124
2019-06-08T05:35:33.000Z,3116
2019-06-08T05:36:45.000Z,3112
2019-06-08T05:37:58.000Z,3104
2019-06-08T05:39:10.000Z,3096
2019-06-08T05:40:23.233Z,3096
2019-06-08T05:41:37.000Z,3092
2019-06-08T05:42:47.000Z,3080
2019-06-08T05:43:58.000Z,3068
2019-06-08T05:45:10.000Z,3052
2019-06-08T05:46:23.000Z,3048
2019-06-08T05:47:36.355Z,3040
2019-06-08T05:48:47.000Z,3040
2019-06-08T05:49:59.000Z,3044
2019-06-08T05:51:11.000Z,3052
2019-06-08T05:52:25.000Z,3064
2019-06-08T05:53:36.000Z,3064
2019-06-08T05:54:48.000Z,3068
2019-06-08T05:56:00.000Z,3076
2019-06-08T05:57:12.000Z,3088
2019-06-08T05:59:37.000Z,3056
2019-06-08T06:00:50.000Z,3056
2019-06-08T06:02:01.000Z,3056
2019-06-08T06:03:13.000Z,3064
2019-06-08T06:04:25.000Z,3060
2019-06-08T06:05:39.000Z,3084
2019-06-08T06:06:51.000Z,3144
2019-06-08T06:08:03.000Z,3304
2019-06-08T06:09:14.000Z,3692
2019-06-08T06:10:27.000Z,4284
2019-06-08T06:11:39.000Z,4756
2019-06-08T06:12:51.000Z,5812
2019-06-08T06:14:04.000Z,6976
2019-06-08T06:15:16.000Z,7748
2019-06-08T06:16:27.000Z,8324
2019-06-08T06:17:41.365Z,8768
2019-06-08T06:18:53.000Z,9048
2019-06-08T06:20:05.046Z,9376
2019-06-08T06:21:17.670Z,9456
2019-06-08T06:22:29.868Z,9688
2019-06-08T06:23:41.000Z,9132
2019-06-08T06:24:53.000Z,8760
2019-06-08T06:26:06.426Z,9012
2019-06-08T06:28:29.000Z,8760
2019-06-08T06:29:41.000Z,8116
2019-06-08T06:30:54.000Z,7396
2019-06-08T06:32:06.000Z,6328
2019-06-08T06:33:19.585Z,5480
2019-06-08T06:34:31.000Z,4684
2019-06-08T06:35:43.000Z,4088
2019-06-08T06:36:55.000Z,3776
2019-06-08T06:38:07.000Z,3728
2019-06-08T06:39:20.000Z,4056
2019-06-08T06:40:31.000Z,4540
2019-06-08T06:41:43.000Z,5004
2019-06-08T06:42:56.000Z,6052
2019-06-08T06:44:08.000Z,6900
2019-06-08T06:45:21.526Z,6552
2019-06-08T06:46:33.717Z,5756
2019-06-08T06:47:44.000Z,5028
2019-06-08T06:48:57.000Z,4872
2019-06-08T06:50:09.000Z,5460
2019-06-08T06:51:22.000Z,6276
2019-06-08T06:52:33.000Z,6980
2019-06-08T06:53:45.000Z,7860
2019-06-08T06:54:58.000Z,9164
2019-06-08T06:56:10.000Z,10128
2019-06-08T06:57:22.000Z,10952
2019-06-08T06:58:34.000Z,11064
2019-06-08T06:59:46.000Z,11088
2019-06-08T07:01:00.057Z,10976
2019-06-08T07:02:11.000Z,11176
2019-06-08T07:03:23.000Z,11148
2019-06-08T07:04:36.000Z,10756
2019-06-08T07:07:01.013Z,9632
2019-06-08T07:08:12.000Z,9216
2019-06-08T07:09:25.039Z,9032
2019-06-08T07:10:48.000Z,9112
2019-06-08T07:14:14.000Z,9252
2019-06-08T07:15:26.000Z,9532
2019-06-08T07:16:38.513Z,9668
2019-06-08T07:17:50.070Z,9932
2019-06-08T07:19:01.000Z,10788
2019-06-08T07:20:14.000Z,11344
2019-06-08T07:21:26.000Z,11716
2019-06-08T07:22:39.456Z,11904
2019-06-08T07:23:51.000Z,12036
2019-06-08T07:25:02.000Z,12764
2019-06-08T07:26:15.000Z,13208
2019-06-08T07:27:27.000Z,12552
2019-06-08T07:28:45.000Z,10824
2019-06-08T07:29:52.571Z,9452
2019-06-08T07:31:04.755Z,8316
2019-06-08T07:32:16.949Z,8940
2019-06-08T07:33:28.000Z,10572
2019-06-08T07:34:41.331Z,11800
2019-06-08T07:35:53.000Z,12136
2019-06-08T07:38:16.000Z,12248
2019-06-08T07:39:29.000Z,11836
2019-06-08T07:40:42.262Z,11224
2019-06-08T07:41:54.000Z,10516
2019-06-08T07:43:05.000Z,9936
2019-06-08T07:44:17.000Z,9796
2019-06-08T07:45:30.000Z,9452
2019-06-08T07:46:42.000Z,8872
2019-06-08T07:47:54.000Z,8540
2019-06-08T07:49:06.000Z,8000
2019-06-08T07:50:19.000Z,7484
2019-06-08T07:51:30.000Z,7160
2019-06-08T07:52:43.000Z,6900
2019-06-08T07:53:55.000Z,7116
2019-06-08T07:55:08.531Z,7224
2019-06-08T07:56:19.000Z,7200
2019-06-08T07:57:32.916Z,7340
2019-06-08T07:58:44.000Z,7564
2019-06-08T07:59:56.000Z,7828
2019-06-08T08:01:09.000Z,7880
2019-06-08T08:02:21.669Z,8208
2019-06-08T08:03:32.000Z,8888
2019-06-08T08:04:45.000Z,9700
2019-06-08T08:05:58.221Z,10356
2019-06-08T08:07:09.000Z,10708
2019-06-08T08:08:21.000Z,10432
2019-06-08T08:09:33.000Z,10828
2019-06-08T08:10:46.000Z,11360
2019-06-08T08:11:59.000Z,11492
2019-06-08T08:13:10.000Z,10892
2019-06-08T08:14:23.667Z,9648
2019-06-08T08:15:34.000Z,8216
2019-06-08T08:16:46.000Z,7256
2019-06-08T08:18:00.081Z,6496
2019-06-08T08:19:11.000Z,6180
2019-06-08T08:20:23.000Z,5988
2019-06-08T08:21:35.000Z,5816
2019-06-08T08:22:48.000Z,5452
2019-06-08T08:23:59.000Z,5072
2019-06-08T08:25:12.000Z,5156
2019-06-08T08:26:25.000Z,5244
2019-06-08T08:27:37.586Z,5772
2019-06-08T08:28:48.000Z,6292
2019-06-08T08:30:00.000Z,6720
2019-06-08T08:31:13.000Z,7896
2019-06-08T08:32:26.349Z,8808
2019-06-08T08:33:38.000Z,9700
2019-06-08T08:34:49.000Z,10328
2019-06-08T08:36:01.000Z,10052
2019-06-08T08:37:14.000Z,9648
2019-06-08T08:38:26.000Z,9484
2019-06-08T08:39:39.496Z,9080
2019-06-08T08:40:51.693Z,8752
2019-06-08T08:42:03.000Z,9020
2019-06-08T08:43:15.000Z,8808
2019-06-08T08:44:27.000Z,8560
2019-06-08T08:45:39.000Z,8200
2019-06-08T08:46:52.066Z,7604
2019-06-08T08:48:03.000Z,7468
2019-06-08T08:49:16.000Z,7348
2019-06-08T08:50:28.000Z,6524
2019-06-08T08:51:41.425Z,5684
2019-06-08T08:52:52.000Z,5372
2019-06-08T08:54:05.000Z,4968
2019-06-08T08:55:16.000Z,5240
2019-06-08T08:56:29.000Z,6452
2019-06-08T08:57:41.000Z,7224
2019-06-08T08:58:53.000Z,8932
2019-06-08T09:00:05.000Z,10928
2019-06-08T09:01:17.000Z,11064
2019-06-08T09:02:30.000Z,11368
2019-06-08T09:03:42.000Z,11444
2019-06-08T09:04:54.000Z,12076
2019-06-08T09:06:06.000Z,12640
2019-06-08T09:07:19.901Z,13196
2019-06-08T09:08:31.000Z,13460
2019-06-08T09:09:43.000Z,13876
2019-06-08T09:10:56.480Z,13036
2019-06-08T09:12:08.000Z,12456
2019-06-08T09:13:19.000Z,12316
2019-06-08T09:15:44.000Z,12360
2019-06-08T09:16:56.000Z,12076
2019-06-08T09:18:08.000Z,11296
2019-06-08T09:19:21.000Z,10792
2019-06-08T09:20:34.028Z,10512
2019-06-08T09:21:45.000Z,9884
2019-06-08T09:22:57.000Z,9464
2019-06-08T09:24:09.000Z,9588
2019-06-08T09:25:22.795Z,10496
2019-06-08T09:26:33.000Z,11396
2019-06-08T09:27:46.000Z,11932
2019-06-08T09:28:59.000Z,12220
2019-06-08T09:30:10.000Z,12756
2019-06-08T09:31:23.000Z,12736
2019-06-08T09:32:34.000Z,13240
2019-06-08T09:33:47.000Z,13708
2019-06-08T09:35:00.000Z,15228
2019-06-08T09:36:11.000Z,15752
2019-06-08T09:37:23.000Z,16112
2019-06-08T09:38:36.000Z,15568
2019-06-08T09:39:48.000Z,15708
2019-06-08T09:41:01.000Z,15908
2019-06-08T09:42:13.509Z,15724
2019-06-08T09:43:25.698Z,15584
2019-06-08T09:44:36.000Z,15520
2019-06-08T09:45:49.000Z,15184
2019-06-08T09:47:02.269Z,15280
2019-06-08T09:48:14.000Z,14964
2019-06-08T09:49:26.653Z,14000
2019-06-08T09:50:37.000Z,13016
2019-06-08T09:51:50.000Z,13120
2019-06-08T09:53:02.000Z,13720
2019-06-08T09:54:14.000Z,14544
2019-06-08T09:55:26.000Z,14688
2019-06-08T09:56:38.000Z,14028
2019-06-08T09:57:50.000Z,13344
2019-06-08T09:59:04.000Z,13048
2019-06-08T10:00:15.000Z,12540
2019-06-08T10:01:28.532Z,11576
2019-06-08T10:02:39.000Z,11100
2019-06-08T10:03:52.000Z,11352
2019-06-08T10:05:04.000Z,12720
2019-06-08T10:06:17.000Z,13824
2019-06-08T10:07:28.000Z,13940
2019-06-08T10:08:41.000Z,14176
2019-06-08T10:09:53.862Z,14764
2019-06-08T10:11:05.000Z,15092
2019-06-08T10:12:17.000Z,14968
2019-06-08T10:13:30.000Z,14444
2019-06-08T10:14:42.634Z,14516
2019-06-08T10:17:05.000Z,15572
2019-06-08T10:18:19.209Z,14672
2019-06-08T10:19:30.000Z,13008
2019-06-08T10:20:42.000Z,12792
2019-06-08T10:21:54.000Z,11148
2019-06-08T10:23:07.988Z,9464
2019-06-08T10:24:19.000Z,9180
2019-06-08T10:25:31.000Z,8908
2019-06-08T10:26:44.575Z,9064
2019-06-08T10:27:56.771Z,9000
2019-06-08T10:29:07.000Z,8716
2019-06-08T10:30:20.000Z,8376
2019-06-08T10:31:33.352Z,8524
2019-06-08T10:32:45.550Z,8828
2019-06-08T10:33:56.000Z,9596
2019-06-08T10:35:08.000Z,10472
2019-06-08T10:36:22.121Z,12352
2019-06-08T10:37:34.000Z,14716
2019-06-08T10:38:45.000Z,15620
2019-06-08T10:39:57.000Z,16292
2019-06-08T10:41:09.000Z,16992
2019-06-08T10:42:22.000Z,17216
2019-06-08T10:43:34.000Z,16532
2019-06-08T10:44:46.000Z,16080
2019-06-08T10:45:58.000Z,15472
2019-06-08T10:47:11.837Z,16896
2019-06-08T10:48:23.000Z,18304
2019-06-08T10:49:35.000Z,17632
2019-06-08T10:50:48.040Z,17280
2019-06-08T10:51:59.000Z,17344
2019-06-08T10:53:11.000Z,18048
2019-06-08T10:54:23.000Z,17312
2019-06-08T10:55:36.000Z,13600
2019-06-08T10:56:48.000Z,13840
2019-06-08T10:59:13.000Z,15528
2019-06-08T11:00:38.000Z,16324
2019-06-08T11:01:38.132Z,14724
2019-06-08T11:02:49.000Z,13644
2019-06-08T11:04:01.000Z,11892
2019-06-08T11:05:14.707Z,11532
2019-06-08T11:06:26.901Z,10596
2019-06-08T11:07:38.000Z,8652
2019-06-08T11:08:50.000Z,6916
2019-06-08T11:11:14.000Z,6720
2019-06-08T11:12:27.871Z,9272
2019-06-08T11:13:40.005Z,10396
2019-06-08T11:14:51.000Z,10972
2019-06-08T11:16:03.000Z,8716
2019-06-08T11:17:15.000Z,7716
2019-06-08T11:18:28.000Z,7904
2019-06-08T11:19:40.000Z,9748
2019-06-08T11:20:52.000Z,11492
2019-06-08T11:22:04.000Z,14816
2019-06-08T11:23:16.000Z,15712
2019-06-08T11:24:28.000Z,15232
2019-06-08T11:25:40.000Z,14340
2019-06-08T11:26:54.179Z,13848
2019-06-08T11:28:05.000Z,14184
2019-06-08T11:29:18.574Z,15176
2019-06-08T11:30:30.000Z,16216
2019-06-08T11:31:41.000Z,16960
2019-06-08T11:32:54.000Z,15948
2019-06-08T11:34:06.000Z,16044
2019-06-08T11:35:18.000Z,16256
2019-06-08T11:36:31.000Z,19296
2019-06-08T11:37:42.000Z,19520
2019-06-08T11:38:55.000Z,18752
2019-06-08T11:40:07.000Z,17536
2019-06-08T11:41:19.000Z,12436
2019-06-08T11:42:31.000Z,9456
2019-06-08T11:43:44.000Z,8928
2019-06-08T11:44:56.000Z,7892
2019-06-08T11:46:08.000Z,7268
2019-06-08T11:47:21.000Z,7200
2019-06-08T11:48:33.000Z,7720
2019-06-08T11:49:44.000Z,8112
2019-06-08T11:50:57.000Z,10840
2019-06-08T11:52:09.000Z,13484
2019-06-08T11:53:22.446Z,15244
2019-06-08T11:54:34.000Z,17792
2019-06-08T11:55:45.000Z,18208
2019-06-08T11:56:58.000Z,17632
2019-06-08T11:58:10.000Z,16864
2019-06-08T11:59:23.000Z,16200
2019-06-08T12:00:34.000Z,16928
2019-06-08T12:01:46.000Z,17152
2019-06-08T12:02:58.000Z,17152
2019-06-08T12:04:11.000Z,17568
2019-06-08T12:05:23.000Z,17792
2019-06-08T12:06:35.000Z,17696
2019-06-08T12:07:47.000Z,16512
2019-06-08T12:09:00.912Z,15968
2019-06-08T12:10:12.000Z,16324
2019-06-08T12:11:24.000Z,15856
2019-06-08T12:12:37.000Z,16056
2019-06-08T12:13:48.000Z,16108
2019-06-08T12:15:00.000Z,14088
2019-06-08T12:16:13.000Z,11916
2019-06-08T12:17:25.000Z,12412
2019-06-08T12:18:37.000Z,13000
2019-06-08T12:19:49.000Z,12580
2019-06-08T12:21:01.000Z,12132
2019-06-08T12:22:18.000Z,10868
2019-06-08T12:23:27.230Z,11700
2019-06-08T12:24:38.000Z,9524
2019-06-08T12:27:02.000Z,8048
2019-06-08T12:28:14.000Z,7564
2019-06-08T12:29:27.000Z,7264
2019-06-08T12:30:41.154Z,7160
2019-06-08T12:31:51.000Z,5784
2019-06-08T12:33:03.000Z,6720
2019-06-08T12:34:16.000Z,6368
2019-06-08T12:35:28.000Z,6180
2019-06-08T12:36:41.000Z,6368
2019-06-08T12:37:52.000Z,6752
2019-06-08T12:39:04.000Z,7652
2019-06-08T12:40:17.000Z,7988
2019-06-08T12:41:29.000Z,8652
2019-06-08T12:42:41.000Z,10528
2019-06-08T12:43:53.000Z,12136
2019-06-08T12:45:06.771Z,10484
2019-06-08T12:46:18.970Z,10452
2019-06-08T12:47:31.165Z,8752
2019-06-08T12:48:43.000Z,10276
2019-06-08T12:49:55.557Z,9864
2019-06-08T12:51:07.000Z,9992
2019-06-08T12:52:18.000Z,8828
2019-06-08T12:53:31.000Z,7980
2019-06-08T12:54:43.000Z,7460
2019-06-08T12:55:55.000Z,6516
2019-06-08T12:57:08.000Z,7132
2019-06-08T12:58:19.000Z,9124
2019-06-08T12:59:32.000Z,9696
2019-06-08T13:00:44.000Z,10288
2019-06-08T13:01:57.496Z,10512
2019-06-08T13:03:08.000Z,10820
2019-06-08T13:04:20.000Z,11628
2019-06-08T13:05:33.000Z,12548
2019-06-08T13:06:45.000Z,11592
2019-06-08T13:07:58.000Z,9924
2019-06-08T13:09:09.000Z,8212
2019-06-08T13:10:21.000Z,7160
2019-06-08T13:11:33.000Z,7184
2019-06-08T13:12:46.000Z,7404
2019-06-08T13:13:58.000Z,7144
2019-06-08T13:15:10.000Z,6364
2019-06-08T13:16:23.785Z,6496
2019-06-08T13:17:35.994Z,6976
2019-06-08T13:18:48.180Z,7260
2019-06-08T13:19:59.000Z,7272
2019-06-08T13:21:12.000Z,7144
2019-06-08T13:22:24.751Z,7128
2019-06-08T13:23:36.935Z,6652
2019-06-08T13:24:48.000Z,6120
2019-06-08T13:26:01.000Z,6272
2019-06-08T13:27:13.507Z,6460
2019-06-08T13:28:24.000Z,7260
2019-06-08T13:29:36.000Z,7212
2019-06-08T13:30:49.000Z,7412
2019-06-08T13:32:01.000Z,6992
2019-06-08T13:33:14.000Z,8148
2019-06-08T13:34:26.000Z,7388
2019-06-08T13:35:37.000Z,4888
2019-06-08T13:36:50.000Z,6104
2019-06-08T13:38:03.229Z,5676
2019-06-08T13:39:14.000Z,5592
2019-06-08T13:40:27.605Z,5516
2019-06-08T13:41:39.783Z,5544
2019-06-08T13:42:51.000Z,5408
2019-06-08T13:44:04.159Z,5324
2019-06-08T13:45:16.346Z,5340
2019-06-08T13:46:27.000Z,5396
2019-06-08T13:47:40.736Z,5344
2019-06-08T13:48:51.000Z,5356
2019-06-08T13:50:04.000Z,5352
2019-06-08T13:51:17.319Z,5352
2019-06-08T13:52:28.000Z,5400
2019-06-08T13:53:41.717Z,5424
2019-06-08T13:54:53.906Z,5400
2019-06-08T13:56:05.000Z,5372
2019-06-08T13:57:17.000Z,5364
2019-06-08T13:58:30.502Z,5404
2019-06-08T13:59:42.705Z,5584
2019-06-08T14:00:53.000Z,6036
2019-06-08T14:02:06.000Z,6592
2019-06-08T14:03:19.028Z,6272
2019-06-08T14:04:30.000Z,5916
2019-06-08T14:05:43.000Z,5532
2019-06-08T14:07:00.000Z,5404
2019-06-08T14:08:07.000Z,5444
2019-06-08T14:09:20.243Z,5504
2019-06-08T14:10:31.000Z,5488
2019-06-08T14:11:44.623Z,5528
2019-06-08T14:12:56.817Z,5780
2019-06-08T14:14:07.000Z,5912
2019-06-08T14:15:21.190Z,6468
2019-06-08T14:16:33.000Z,6740
2019-06-08T14:17:44.000Z,6436
2019-06-08T14:18:56.000Z,6352
2019-06-08T14:20:09.000Z,6696
2019-06-08T14:21:22.012Z,7056
2019-06-08T14:22:33.000Z,8188
2019-06-08T14:23:46.000Z,8380
2019-06-08T14:24:58.000Z,7812
2019-06-08T14:26:09.000Z,7132
2019-06-08T14:27:23.081Z,6560
2019-06-08T14:28:35.000Z,5368
2019-06-08T14:29:47.457Z,5800
2019-06-08T14:30:59.649Z,7880
2019-06-08T14:32:10.000Z,9632
2019-06-08T14:33:22.000Z,9548
2019-06-08T14:34:35.000Z,8868
2019-06-08T14:35:48.386Z,7392
2019-06-08T14:37:00.573Z,6720
2019-06-08T14:38:11.000Z,5456
2019-06-08T14:39:23.000Z,6272
2019-06-08T14:40:36.000Z,7308
2019-06-08T14:41:49.338Z,7736
2019-06-08T14:43:00.000Z,8324
2019-06-08T14:44:12.000Z,9196
2019-06-08T14:45:25.000Z,9596
2019-06-08T14:46:37.000Z,8988
2019-06-08T14:47:50.300Z,8768
2019-06-08T14:49:02.487Z,9292
2019-06-08T14:50:14.000Z,9432
2019-06-08T14:51:26.000Z,8772
2019-06-08T14:52:38.000Z,9032
2019-06-08T14:53:50.000Z,8916
2019-06-08T14:55:03.000Z,8684
2019-06-08T14:56:14.000Z,8228
2019-06-08T14:57:26.000Z,7808
2019-06-08T14:58:40.001Z,7496
2019-06-08T14:59:52.217Z,7728
2019-06-08T15:01:03.000Z,7788
2019-06-08T15:02:15.000Z,7300
2019-06-08T15:03:28.000Z,7048
2019-06-08T15:04:40.097Z,6736
2019-06-08T15:05:53.000Z,9320
2019-06-08T15:07:04.000Z,10288
2019-06-08T15:08:16.000Z,11336
2019-06-08T15:09:28.000Z,10252
2019-06-08T15:10:40.000Z,8508
2019-06-08T15:11:54.161Z,9480
2019-06-08T15:13:05.000Z,9388
2019-06-08T15:14:18.000Z,10224
2019-06-08T15:15:30.716Z,28320
2019-06-08T15:16:41.000Z,56032
2019-06-08T15:17:54.000Z,63008
2019-06-08T15:19:06.000Z,60448
2019-06-08T15:20:18.000Z,60224
2019-06-08T15:21:30.000Z,60096
2019-06-08T15:22:43.000Z,60160
2019-06-08T15:23:55.000Z,58656
2019-06-08T15:25:07.000Z,56192
2019-06-08T15:26:20.046Z,56832
2019-06-08T15:27:32.000Z,53696
2019-06-08T15:28:43.000Z,51552
2019-06-08T15:29:56.000Z,54784
2019-06-08T15:31:09.000Z,57056
2019-06-08T15:32:21.437Z,58080
2019-06-08T15:33:33.000Z,58144
2019-06-08T15:34:44.000Z,51904
2019-06-08T15:35:57.000Z,45824
2019-06-08T15:37:09.000Z,47104
2019-06-08T15:38:21.000Z,51744
2019-06-08T15:40:45.000Z,51456
2019-06-08T15:41:57.000Z,53408
2019-06-08T15:43:10.000Z,57344
2019-06-08T15:44:22.000Z,52352
2019-06-08T15:45:34.000Z,48640
2019-06-08T15:46:47.739Z,46400
2019-06-08T15:47:58.000Z,44544
2019-06-08T15:49:11.000Z,47936
2019-06-08T15:51:36.506Z,54528
2019-06-08T15:52:47.000Z,53184
2019-06-08T15:54:00.880Z,53472
2019-06-08T15:56:24.000Z,9128
2019-06-08T15:57:36.000Z,11888
2019-06-08T15:58:48.000Z,9472
2019-06-08T16:00:00.000Z,38688
2019-06-08T16:01:13.000Z,7824
2019-06-08T16:02:26.236Z,8840
2019-06-08T16:03:38.430Z,7988
2019-06-08T16:04:49.000Z,40672
2019-06-08T16:06:01.000Z,54848
2019-06-08T16:07:16.000Z,57888
2019-06-08T16:08:26.000Z,58080
2019-06-08T16:10:51.000Z,18368
2019-06-08T16:12:02.000Z,7500
2019-06-08T16:13:14.000Z,7396
2019-06-08T16:14:27.000Z,10692
2019-06-08T16:15:40.366Z,9844
2019-06-08T16:16:52.565Z,8356
2019-06-08T16:18:04.000Z,7788
2019-06-08T16:19:15.000Z,7368
2019-06-08T16:20:28.000Z,7180
2019-06-08T16:21:40.000Z,6688
2019-06-08T16:22:53.530Z,6440
2019-06-08T16:24:05.717Z,6152
2019-06-08T16:25:17.000Z,5788
2019-06-08T16:26:29.000Z,4556
2019-06-08T16:27:41.000Z,5568
2019-06-08T16:28:54.499Z,5636
2019-06-08T16:30:05.000Z,5364
2019-06-08T16:31:17.000Z,5192
2019-06-08T16:32:30.000Z,5096
2019-06-08T16:33:43.000Z,4980
2019-06-08T16:34:54.000Z,4916
2019-06-08T16:36:07.619Z,4840
2019-06-08T16:37:18.000Z,4736
2019-06-08T16:38:31.000Z,4684
2019-06-08T16:39:44.201Z,4580
2019-06-08T16:40:55.000Z,4660
2019-06-08T16:42:08.000Z,4628
2019-06-08T16:43:20.771Z,4604
2019-06-08T16:45:44.000Z,4568
2019-06-08T16:46:56.000Z,4636
2019-06-08T16:48:08.000Z,4632
2019-06-08T16:49:21.000Z,4660
2019-06-08T16:50:33.000Z,4844
2019-06-08T16:51:45.000Z,4760
2019-06-08T16:52:58.000Z,4532
2019-06-08T16:54:09.000Z,4352